createdAt,value
2018-12-13T00:01:17.924Z,11.93
2018-12-13T00:03:51.794Z,10.07
2018-12-13T00:06:33.226Z,14.43
2018-12-13T00:09:00.734Z,9.87
2018-12-13T00:11:43.379Z,10.63
2018-12-13T00:14:25.224Z,11.43
2018-12-13T00:17:13.817Z,11.17
2018-12-13T00:31:47.582Z,9.10
2018-12-13T00:34:23.381Z,8.37
2018-12-13T00:55:19.368Z,7.50
2018-12-13T00:58:11.168Z,8.27
2018-12-13T01:43:57.394Z,11.10
2018-12-13T01:46:41.097Z,9.10
2018-12-13T01:49:21.491Z,10.07
2018-12-13T01:54:49.640Z,9.30
2018-12-13T01:57:19.643Z,10.20
2018-12-13T01:59:49.741Z,9.37
2018-12-13T02:02:19.564Z,9.80
2018-12-13T02:04:55.116Z,10.33
2018-12-13T02:07:37.129Z,8.30
2018-12-13T02:13:19.917Z,11.20
2018-12-13T02:18:54.334Z,9.53
2018-12-13T02:21:30.140Z,7.57
2018-12-13T02:24:16.599Z,7.20
2018-12-13T02:30:13.187Z,9.70
2018-12-13T02:32:54.994Z,7.27
2018-12-13T02:35:31.295Z,7.00
2018-12-13T02:38:01.287Z,10.17
2018-12-13T02:40:36.704Z,6.90
2018-12-13T02:43:11.973Z,7.73
2018-12-13T02:45:42.160Z,7.03
2018-12-13T02:48:12.365Z,7.47
2018-12-13T02:50:42.283Z,7.10
2018-12-13T02:53:12.259Z,6.70
2018-12-13T02:55:42.331Z,7.50
2018-12-13T02:58:16.367Z,10.83
2018-12-13T03:00:46.379Z,7.77
2018-12-13T03:03:16.679Z,7.60
2018-12-13T03:05:46.568Z,8.00
2018-12-13T03:08:16.580Z,8.37
2018-12-13T03:10:46.706Z,7.03
2018-12-13T03:13:16.683Z,8.83
2018-12-13T03:15:46.830Z,7.00
2018-12-13T03:18:18.799Z,8.23
2018-12-13T03:20:48.887Z,6.60
2018-12-13T03:23:18.858Z,6.83
2018-12-13T03:25:48.859Z,7.17
2018-12-13T03:28:18.733Z,6.60
2018-12-13T03:30:48.742Z,6.43
2018-12-13T03:33:18.842Z,6.77
2018-12-13T03:35:48.787Z,6.73
2018-12-13T03:38:19.017Z,6.27
2018-12-13T03:40:49.121Z,7.20
2018-12-13T03:43:21.179Z,8.13
2018-12-13T03:45:51.208Z,9.17
2018-12-13T03:48:21.281Z,7.83
2018-12-13T03:50:51.272Z,6.23
2018-12-13T03:53:21.293Z,6.80
2018-12-13T03:55:51.289Z,6.70
2018-12-13T03:58:21.443Z,7.23
2018-12-13T04:00:51.341Z,6.83
2018-12-13T04:03:21.392Z,6.50
2018-12-13T04:05:51.646Z,5.80
2018-12-13T04:08:21.595Z,5.93
2018-12-13T04:10:51.666Z,6.23
2018-12-13T04:13:21.682Z,7.57
2018-12-13T04:15:52.680Z,7.37
2018-12-13T04:18:22.743Z,6.40
2018-12-13T04:20:54.624Z,7.07
2018-12-13T04:23:24.909Z,6.67
2018-12-13T04:25:54.909Z,8.27
2018-12-13T04:28:24.913Z,5.43
2018-12-13T04:30:54.971Z,6.83
2018-12-13T04:33:24.960Z,7.40
2018-12-13T04:35:54.940Z,5.40
2018-12-13T04:38:24.769Z,9.83
2018-12-13T04:40:54.789Z,7.30
2018-12-13T04:43:25.890Z,6.20
2018-12-13T04:45:55.893Z,7.53
2018-12-13T04:48:26.113Z,7.43
2018-12-13T04:50:56.067Z,6.23
2018-12-13T04:53:26.049Z,7.60
2018-12-13T04:55:56.028Z,6.20
2018-12-13T04:58:27.024Z,5.27
2018-12-13T05:00:56.946Z,7.47
2018-12-13T05:03:26.948Z,6.67
2018-12-13T05:05:56.984Z,6.60
2018-12-13T05:08:26.798Z,7.10
2018-12-13T05:10:56.962Z,7.30
2018-12-13T05:13:27.099Z,7.67
2018-12-13T05:15:56.980Z,7.67
2018-12-13T05:18:26.838Z,9.47
2018-12-13T05:20:56.844Z,6.53
2018-12-13T05:23:27.326Z,8.10
2018-12-13T05:25:57.195Z,6.77
2018-12-13T05:28:27.154Z,8.33
2018-12-13T05:30:57.267Z,7.80
2018-12-13T05:33:27.308Z,6.73
2018-12-13T05:35:57.313Z,6.20
2018-12-13T05:38:27.255Z,6.17
2018-12-13T05:40:57.319Z,7.20
2018-12-13T05:43:27.387Z,6.80
2018-12-13T05:45:57.459Z,6.50
2018-12-13T05:48:27.488Z,8.33
2018-12-13T05:50:57.643Z,5.13
2018-12-13T05:53:27.669Z,7.80
2018-12-13T05:55:57.815Z,7.03
2018-12-13T05:58:27.625Z,6.27
2018-12-13T06:00:57.631Z,6.93
2018-12-13T06:03:27.649Z,7.17
2018-12-13T06:05:57.962Z,6.27
2018-12-13T06:08:28.114Z,7.00
2018-12-13T06:10:58.229Z,7.13
2018-12-13T06:13:29.334Z,4.70
2018-12-13T06:15:59.458Z,6.93
2018-12-13T06:18:29.426Z,5.37
2018-12-13T06:20:59.350Z,5.17
2018-12-13T06:23:29.286Z,5.17
2018-12-13T06:25:59.363Z,4.17
2018-12-13T06:28:29.323Z,6.63
2018-12-13T06:30:59.424Z,3.37
2018-12-13T06:33:29.654Z,3.00
2018-12-13T06:35:59.506Z,2.90
2018-12-13T06:38:29.515Z,2.93
2018-12-13T06:40:59.594Z,2.83
2018-12-13T06:43:29.630Z,3.80
2018-12-13T06:45:59.824Z,2.20
2018-12-13T06:48:30.015Z,3.63
2018-12-13T06:50:59.985Z,2.60
2018-12-13T06:53:30.195Z,3.40
2018-12-13T06:56:01.794Z,2.53
2018-12-13T06:58:31.776Z,2.47
2018-12-13T07:01:01.822Z,2.87
2018-12-13T07:03:31.680Z,2.90
2018-12-13T07:06:01.743Z,2.70
2018-12-13T07:08:33.466Z,3.23
2018-12-13T07:11:03.544Z,3.37
2018-12-13T07:13:33.641Z,3.00
2018-12-13T07:16:03.659Z,2.97
2018-12-13T07:18:33.740Z,3.20
2018-12-13T07:21:04.014Z,3.37
2018-12-13T07:23:33.863Z,3.90
2018-12-13T07:26:03.843Z,3.07
2018-12-13T07:28:33.803Z,3.53
2018-12-13T07:31:03.944Z,3.10
2018-12-13T07:33:33.954Z,4.07
2018-12-13T07:36:04.022Z,3.27
2018-12-13T07:38:34.092Z,3.40
2018-12-13T07:41:04.361Z,3.27
2018-12-13T07:43:34.364Z,3.57
2018-12-13T07:46:04.366Z,3.37
2018-12-13T07:48:36.074Z,3.30
2018-12-13T07:51:07.891Z,3.83
2018-12-13T07:53:39.591Z,4.53
2018-12-13T07:56:09.627Z,4.27
2018-12-13T07:58:39.533Z,3.30
2018-12-13T08:01:09.678Z,3.47
2018-12-13T08:03:39.644Z,4.13
2018-12-13T08:06:11.204Z,3.20
2018-12-13T08:08:43.028Z,4.10
2018-12-13T08:11:14.565Z,3.27
2018-12-13T08:13:51.044Z,4.20
2018-12-13T08:16:23.158Z,2.90
2018-12-13T08:18:55.081Z,3.20
2018-12-13T08:21:27.311Z,3.90
2018-12-13T08:23:57.493Z,3.20
2018-12-13T08:26:27.876Z,4.77
2018-12-13T08:28:59.102Z,4.77
2018-12-13T08:31:30.468Z,3.70
2018-12-13T08:34:00.589Z,3.30
2018-12-13T08:36:30.919Z,4.63
2018-12-13T08:39:02.716Z,3.63
2018-12-13T08:41:35.709Z,3.53
2018-12-13T08:44:07.907Z,3.97
2018-12-13T08:46:39.756Z,4.87
2018-12-13T08:49:09.789Z,4.07
2018-12-13T08:51:40.101Z,4.43
2018-12-13T08:54:15.478Z,3.37
2018-12-13T08:56:46.593Z,5.50
2018-12-13T08:59:16.602Z,5.07
2018-12-13T09:01:47.515Z,4.00
2018-12-13T09:04:19.381Z,4.93
2018-12-13T09:06:50.566Z,4.23
2018-12-13T09:09:21.611Z,4.13
2018-12-13T09:11:51.674Z,4.83
2018-12-13T09:14:21.654Z,4.20
2018-12-13T09:16:54.413Z,6.30
2018-12-13T09:19:24.528Z,4.90
2018-12-13T09:21:54.912Z,5.03
2018-12-13T09:24:25.772Z,5.37
2018-12-13T09:26:58.071Z,4.83
2018-12-13T09:29:30.091Z,4.83
2018-12-13T09:32:00.202Z,4.37
2018-12-13T09:34:30.072Z,4.70
2018-12-13T09:37:00.444Z,7.47
2018-12-13T09:39:32.165Z,5.20
2018-12-13T09:42:03.237Z,4.93
2018-12-13T09:44:34.801Z,5.00
2018-12-13T09:47:05.138Z,4.43
2018-12-13T09:49:37.356Z,7.23
2018-12-13T09:52:07.528Z,4.60
2018-12-13T09:54:39.258Z,4.50
2018-12-13T09:57:09.406Z,4.37
2018-12-13T10:02:11.495Z,3.73
2018-12-13T10:04:42.982Z,4.63
2018-12-13T10:07:12.924Z,4.43
2018-12-13T10:09:43.008Z,5.03
2018-12-13T10:12:13.198Z,4.30
2018-12-13T10:14:43.559Z,4.17
2018-12-13T10:17:14.926Z,4.07
2018-12-13T10:19:46.679Z,4.50
2018-12-13T10:22:17.031Z,3.60
2018-12-13T10:24:47.280Z,4.73
2018-12-13T10:27:17.237Z,4.30
2018-12-13T10:29:47.189Z,3.80
2018-12-13T10:32:17.313Z,3.63
2018-12-13T10:34:47.195Z,3.23
2018-12-13T10:37:17.474Z,3.47
2018-12-13T10:39:47.506Z,3.67
2018-12-13T10:42:17.588Z,5.30
2018-12-13T10:44:47.751Z,5.90
2018-12-13T10:47:17.835Z,5.87
2018-12-13T10:49:47.778Z,5.80
2018-12-13T10:52:17.917Z,3.80
2018-12-13T10:54:48.065Z,3.67
2018-12-13T10:57:18.267Z,3.30
2018-12-13T10:59:48.209Z,4.17
2018-12-13T11:02:23.521Z,4.23
2018-12-13T11:04:53.407Z,2.87
2018-12-13T11:07:23.449Z,3.47
2018-12-13T11:09:53.393Z,3.00
2018-12-13T11:12:23.311Z,3.33
2018-12-13T11:14:53.285Z,2.43
2018-12-13T11:17:23.430Z,3.63
2018-12-13T11:19:53.441Z,2.73
2018-12-13T11:22:23.302Z,4.00
2018-12-13T11:24:53.187Z,2.70
2018-12-13T11:27:37.228Z,2.90
2018-12-13T11:30:24.728Z,2.30
2018-12-13T11:32:54.714Z,3.43
2018-12-13T11:35:29.673Z,4.00
2018-12-13T11:37:59.762Z,3.50
2018-12-13T11:40:29.923Z,3.50
2018-12-13T11:43:01.867Z,3.00
2018-12-13T11:45:36.980Z,3.13
2018-12-13T11:48:07.351Z,2.80
2018-12-13T11:50:37.373Z,2.90
2018-12-13T11:53:07.358Z,3.20
2018-12-13T11:55:38.650Z,3.03
2018-12-13T11:58:12.259Z,2.57
2018-12-13T12:00:42.249Z,2.73
2018-12-13T12:03:12.342Z,2.60
2018-12-13T12:05:42.343Z,2.70
2018-12-13T12:08:13.401Z,3.17
2018-12-13T12:10:43.393Z,3.07
2018-12-13T12:13:13.263Z,3.70
2018-12-13T12:15:43.253Z,2.60
2018-12-13T12:18:13.201Z,3.17
2018-12-13T12:20:43.054Z,2.47
2018-12-13T12:23:12.984Z,3.10
2018-12-13T12:25:42.935Z,2.53
2018-12-13T12:28:12.843Z,2.80
2018-12-13T12:30:42.911Z,2.60
2018-12-13T12:33:12.885Z,3.23
2018-12-13T12:35:43.003Z,3.00
2018-12-13T12:38:13.105Z,3.60
2018-12-13T12:40:43.320Z,4.20
2018-12-13T12:43:13.253Z,5.47
2018-12-13T12:45:43.244Z,3.33
2018-12-13T12:48:13.295Z,3.20
2018-12-13T12:50:43.215Z,3.43
2018-12-13T12:53:16.539Z,3.40
2018-12-13T12:55:46.526Z,2.93
2018-12-13T12:58:16.619Z,3.37
2018-12-13T13:00:46.623Z,3.67
2018-12-13T13:03:16.659Z,3.57
2018-12-13T13:05:46.655Z,3.07
2018-12-13T13:08:16.578Z,3.40
2018-12-13T13:10:46.644Z,2.70
2018-12-13T13:13:16.552Z,3.00
2018-12-13T13:15:46.473Z,3.30
2018-12-13T13:18:16.439Z,3.93
2018-12-13T13:20:46.394Z,3.13
2018-12-13T13:23:16.417Z,3.50
2018-12-13T13:25:46.481Z,3.47
2018-12-13T13:28:16.352Z,3.17
2018-12-13T13:30:46.331Z,3.93
2018-12-13T13:33:16.390Z,4.00
2018-12-13T13:35:46.649Z,3.93
2018-12-13T13:38:16.631Z,4.30
2018-12-13T13:40:49.582Z,4.00
2018-12-13T13:43:20.728Z,4.13
2018-12-13T13:45:51.833Z,4.13
2018-12-13T13:48:21.835Z,4.87
2018-12-13T13:50:53.732Z,3.70
2018-12-13T13:53:23.948Z,4.30
2018-12-13T13:55:53.863Z,3.77
2018-12-13T13:58:23.746Z,4.00
2018-12-13T14:00:53.701Z,3.30
2018-12-13T14:03:23.533Z,3.80
2018-12-13T14:05:53.482Z,3.70
2018-12-13T14:08:23.534Z,4.77
2018-12-13T14:10:53.359Z,4.27
2018-12-13T14:13:23.341Z,3.77
2018-12-13T14:15:53.186Z,4.60
2018-12-13T14:18:23.243Z,4.00
2018-12-13T14:20:53.093Z,3.43
2018-12-13T14:23:23.139Z,3.93
2018-12-13T14:25:53.030Z,3.60
2018-12-13T14:28:22.965Z,4.10
2018-12-13T14:30:52.940Z,3.60
2018-12-13T14:33:23.166Z,4.23
2018-12-13T14:35:53.119Z,4.67
2018-12-13T14:38:23.082Z,4.20
2018-12-13T14:40:55.185Z,4.03
2018-12-13T14:43:27.166Z,3.70
2018-12-13T14:45:57.356Z,3.90
2018-12-13T14:48:27.564Z,3.60
2018-12-13T14:50:57.931Z,3.60
2018-12-13T14:53:30.960Z,4.13
2018-12-13T14:56:02.899Z,3.90
2018-12-13T14:58:32.847Z,4.30
2018-12-13T15:01:02.729Z,4.27
2018-12-13T15:03:33.792Z,6.03
2018-12-13T15:06:03.784Z,4.60
2018-12-13T15:08:34.806Z,6.27
2018-12-13T15:11:05.864Z,4.80
2018-12-13T15:13:35.777Z,4.03
2018-12-13T15:16:05.948Z,4.93
2018-12-13T15:18:35.998Z,5.90
2018-12-13T15:21:06.138Z,5.13
2018-12-13T15:23:36.251Z,7.43
2018-12-13T15:26:06.436Z,8.00
2018-12-13T15:28:38.862Z,5.97
2018-12-13T15:31:09.163Z,6.07
2018-12-13T15:33:39.156Z,6.00
2018-12-13T15:36:09.114Z,5.97
2018-12-13T15:38:39.174Z,4.97
2018-12-13T15:41:09.127Z,5.00
2018-12-13T15:43:39.181Z,5.40
2018-12-13T15:46:10.274Z,4.70
2018-12-13T15:48:40.471Z,4.60
2018-12-13T15:51:10.794Z,4.97
2018-12-13T15:53:42.557Z,9.20
2018-12-13T15:56:13.220Z,4.70
2018-12-13T15:58:45.230Z,5.30
2018-12-13T16:01:16.979Z,4.77
2018-12-13T16:03:47.037Z,4.90
2018-12-13T16:06:16.978Z,5.03
2018-12-13T16:08:47.019Z,5.40
2018-12-13T16:11:17.120Z,4.70
2018-12-13T16:13:48.216Z,6.27
2018-12-13T16:16:18.303Z,5.90
2018-12-13T16:18:48.540Z,6.80
2018-12-13T16:21:18.496Z,5.73
2018-12-13T16:23:48.453Z,5.30
2018-12-13T16:26:18.418Z,4.77
2018-12-13T16:28:48.394Z,4.10
2018-12-13T16:31:18.361Z,5.17
2018-12-13T16:33:48.790Z,5.23
2018-12-13T16:36:18.762Z,4.90
2018-12-13T16:38:48.770Z,6.70
2018-12-13T16:41:18.805Z,9.43
2018-12-13T16:43:48.899Z,5.83
2018-12-13T16:46:18.912Z,5.30
2018-12-13T16:48:48.924Z,5.20
2018-12-13T16:51:18.928Z,5.07
2018-12-13T16:53:48.956Z,5.27
2018-12-13T16:56:18.977Z,5.70
2018-12-13T16:59:02.810Z,5.67
2018-12-13T17:01:37.742Z,5.93
2018-12-13T17:04:07.703Z,7.03
2018-12-13T17:06:37.685Z,8.57
2018-12-13T17:09:09.718Z,7.57
2018-12-13T17:11:59.617Z,6.77
2018-12-13T17:14:31.574Z,7.30
2018-12-13T17:17:08.531Z,7.47
2018-12-13T17:19:40.583Z,8.27
2018-12-13T17:22:10.539Z,8.83
2018-12-13T17:24:40.656Z,8.00
2018-12-13T17:27:17.162Z,9.43
2018-12-13T17:29:54.717Z,7.97
2018-12-13T17:32:32.332Z,8.17
2018-12-13T17:35:12.589Z,9.17
2018-12-13T17:37:48.626Z,7.70
2018-12-13T17:40:24.570Z,9.93
2018-12-13T17:42:58.704Z,9.20
2018-12-13T17:45:31.724Z,9.10
2018-12-13T17:48:02.224Z,8.17
2018-12-13T17:50:32.084Z,12.40
2018-12-13T17:53:02.140Z,10.07
2018-12-13T17:55:32.223Z,11.83
2018-12-13T17:58:02.171Z,10.57
2018-12-13T18:00:32.192Z,10.63
2018-12-13T18:03:02.370Z,10.33
2018-12-13T18:05:32.472Z,12.10
2018-12-13T18:08:02.444Z,10.63
2018-12-13T18:10:32.629Z,11.73
2018-12-13T18:13:02.549Z,13.30
2018-12-13T18:15:32.633Z,12.17
2018-12-13T18:18:02.646Z,10.77
2018-12-13T18:20:32.664Z,11.57
2018-12-13T18:23:03.702Z,11.10
2018-12-13T18:25:33.642Z,10.23
2018-12-13T18:28:03.720Z,10.47
2018-12-13T18:30:43.551Z,10.43
2018-12-13T18:33:14.604Z,11.40
2018-12-13T18:35:44.775Z,11.77
2018-12-13T18:38:14.695Z,13.00
2018-12-13T18:40:57.270Z,10.93
2018-12-13T18:43:28.531Z,11.60
2018-12-13T18:45:58.720Z,14.33
2018-12-13T18:48:28.867Z,13.50
2018-12-13T18:50:58.685Z,13.00
2018-12-13T18:53:28.845Z,11.10
2018-12-13T18:56:00.820Z,11.23
2018-12-13T18:58:30.806Z,12.27
2018-12-13T19:01:03.538Z,11.33
2018-12-13T19:03:33.584Z,11.97
2018-12-13T19:06:03.577Z,12.33
2018-12-13T19:08:33.812Z,12.50
2018-12-13T19:11:05.040Z,12.50
2018-12-13T19:13:35.391Z,14.07
2018-12-13T19:16:05.359Z,12.70
2018-12-13T19:18:35.325Z,12.87
2018-12-13T19:21:06.861Z,14.53
2018-12-13T19:23:37.025Z,14.83
2018-12-13T19:29:10.442Z,14.73
2018-12-13T19:31:45.470Z,13.00
2018-12-13T19:34:15.563Z,14.97
2018-12-13T19:36:45.406Z,16.40
2018-12-13T19:39:15.345Z,15.80
2018-12-13T19:41:45.547Z,15.60
2018-12-13T19:44:16.517Z,14.97
2018-12-13T19:46:48.615Z,14.47
2018-12-13T19:52:06.469Z,16.97
2018-12-13T19:54:38.806Z,15.57
2018-12-13T19:57:09.771Z,13.23
2018-12-13T19:59:45.214Z,15.43
2018-12-13T20:02:16.273Z,14.07
2018-12-13T20:04:46.331Z,15.40
2018-12-13T20:07:16.317Z,14.90
2018-12-13T20:09:47.244Z,14.50
2018-12-13T20:12:26.487Z,17.87
2018-12-13T20:14:58.432Z,15.93
2018-12-13T20:17:29.050Z,14.97
2018-12-13T20:20:10.343Z,15.90
2018-12-13T20:22:41.151Z,17.17
2018-12-13T20:25:14.939Z,15.83
2018-12-13T20:27:52.000Z,17.57
2018-12-13T20:30:33.840Z,14.30
2018-12-13T20:33:22.351Z,17.10
2018-12-13T20:35:59.452Z,16.07
2018-12-13T20:38:41.546Z,16.30
2018-12-13T20:41:15.460Z,17.63
2018-12-13T20:43:45.869Z,17.70
2018-12-13T20:46:16.971Z,18.17
2018-12-13T20:48:47.071Z,17.60
2018-12-13T20:51:18.675Z,17.57
2018-12-13T20:53:50.705Z,16.43
2018-12-13T20:56:28.188Z,17.40
2018-12-13T20:59:06.028Z,15.83
2018-12-13T21:01:37.635Z,16.27
2018-12-13T21:04:08.001Z,15.43
2018-12-13T21:06:39.335Z,16.87
2018-12-13T21:09:10.478Z,17.17
2018-12-13T21:11:42.630Z,18.33
2018-12-13T21:14:18.823Z,16.40
2018-12-13T21:16:59.935Z,17.87
2018-12-13T21:19:32.553Z,15.60
2018-12-13T21:22:13.992Z,17.93
2018-12-13T21:24:55.752Z,18.43
2018-12-13T21:27:30.501Z,18.50
2018-12-13T21:30:12.010Z,19.87
2018-12-13T21:36:07.956Z,15.80
2018-12-13T21:38:48.958Z,19.23
2018-12-13T21:41:29.340Z,18.97
2018-12-13T21:43:59.224Z,20.87
2018-12-13T21:46:32.682Z,17.47
2018-12-13T21:49:09.210Z,17.73
2018-12-13T21:51:51.638Z,19.50
2018-12-13T21:54:27.547Z,19.47
2018-12-13T21:56:57.846Z,21.27
2018-12-13T21:59:27.885Z,21.13
2018-12-13T22:01:57.918Z,19.37
2018-12-13T22:04:27.850Z,20.97
2018-12-13T22:06:58.928Z,23.30
2018-12-13T22:09:29.002Z,22.33
2018-12-13T22:11:59.010Z,18.93
2018-12-13T22:14:29.151Z,22.23
2018-12-13T22:17:06.141Z,20.20
2018-12-13T22:19:36.160Z,21.63
2018-12-13T22:22:06.329Z,16.90
2018-12-13T22:24:36.302Z,18.53
2018-12-13T22:27:06.636Z,19.87
2018-12-13T22:29:42.331Z,21.90
2018-12-13T22:32:12.545Z,21.37
2018-12-13T22:37:39.172Z,16.90
2018-12-13T22:40:09.280Z,19.23
2018-12-13T22:42:43.677Z,18.23
2018-12-13T22:45:13.907Z,19.77
2018-12-13T22:47:45.184Z,18.97
2018-12-13T22:50:15.518Z,19.90
2018-12-13T22:52:46.186Z,19.43
2018-12-13T22:55:16.470Z,19.07
2018-12-13T22:57:46.904Z,19.53
2018-12-13T23:00:23.665Z,17.30
2018-12-13T23:02:59.635Z,18.67
2018-12-13T23:05:47.167Z,18.07
2018-12-13T23:08:26.354Z,16.23
2018-12-13T23:11:02.660Z,17.93
2018-12-13T23:13:32.806Z,18.37
2018-12-13T23:16:06.381Z,19.20
2018-12-13T23:18:42.142Z,19.17
2018-12-13T23:21:12.247Z,20.73
2018-12-13T23:23:42.366Z,19.53
2018-12-13T23:26:12.591Z,16.37
2018-12-13T23:28:42.706Z,16.53
2018-12-13T23:31:12.833Z,20.00
2018-12-13T23:33:42.990Z,19.23
2018-12-13T23:36:13.332Z,17.40
2018-12-13T23:38:43.191Z,17.77
2018-12-13T23:41:13.298Z,19.00
2018-12-13T23:43:43.601Z,17.57
2018-12-13T23:46:13.828Z,17.53
2018-12-13T23:48:44.101Z,18.20
2018-12-13T23:51:14.182Z,18.87
2018-12-13T23:53:44.515Z,19.33
2018-12-13T23:56:16.163Z,19.33
2018-12-13T23:58:46.580Z,18.20
